createdAt,value
2022-12-12T00:03:07.898Z,97202.00
2022-12-12T00:08:11.066Z,97221.00
2022-12-12T00:13:14.117Z,97196.00
2022-12-12T00:18:17.175Z,97203.00
2022-12-12T00:23:20.464Z,97199.00
2022-12-12T00:28:27.195Z,97202.00
2022-12-12T00:33:30.294Z,97193.00
2022-12-12T00:38:33.694Z,97205.00
2022-12-12T00:43:36.824Z,97199.00
2022-12-12T00:48:39.824Z,97208.00
2022-12-12T00:53:42.869Z,97206.00
2022-12-12T00:58:46.422Z,97215.00
2022-12-12T01:03:49.676Z,97209.00
2022-12-12T01:08:53.284Z,97217.00
2022-12-12T01:13:57.070Z,97215.00
2022-12-12T01:19:00.466Z,97224.00
2022-12-12T01:24:03.622Z,97226.00
2022-12-12T01:29:06.655Z,97219.00
2022-12-12T01:34:09.812Z,97225.00
2022-12-12T01:39:12.825Z,97224.00
2022-12-12T01:45:01.353Z,97235.00
2022-12-12T01:50:10.034Z,97229.00
2022-12-12T01:55:18.332Z,97223.00
2022-12-12T02:00:21.777Z,97226.00
2022-12-12T02:05:27.117Z,97233.00
2022-12-12T02:10:30.728Z,97235.00
2022-12-12T02:15:55.341Z,97239.00
2022-12-12T02:21:11.265Z,97242.00
2022-12-12T02:26:25.390Z,97231.00
2022-12-12T02:31:48.624Z,97234.00
2022-12-12T02:37:03.633Z,97229.00
2022-12-12T02:42:39.017Z,97234.00
2022-12-12T02:47:56.047Z,97239.00
2022-12-12T02:53:00.670Z,97254.00
2022-12-12T02:58:05.419Z,97232.00
2022-12-12T03:04:00.259Z,97246.00
2022-12-12T03:09:38.767Z,97228.00
2022-12-12T03:15:09.064Z,97229.00
2022-12-12T03:20:35.939Z,97232.00
2022-12-12T03:26:17.627Z,97238.00
2022-12-12T03:31:25.756Z,97240.00
2022-12-12T03:36:46.486Z,97244.00
2022-12-12T03:42:04.887Z,97240.00
2022-12-12T03:47:14.031Z,97241.00
2022-12-12T03:52:22.990Z,97235.00
2022-12-12T03:57:37.094Z,97245.00
2022-12-12T04:02:58.139Z,97236.00
2022-12-12T04:08:01.276Z,97244.00
2022-12-12T04:13:07.097Z,97259.00
2022-12-12T04:18:33.673Z,97257.00
2022-12-12T04:23:56.099Z,97259.00
2022-12-12T04:29:04.823Z,97255.00
2022-12-12T04:34:18.034Z,97249.00
2022-12-12T04:39:22.089Z,97249.00
2022-12-12T04:44:30.562Z,97261.00
2022-12-12T04:49:36.642Z,97272.00
2022-12-12T04:55:00.401Z,97269.00
2022-12-12T05:00:04.223Z,97274.00
2022-12-12T05:05:10.171Z,97271.00
2022-12-12T05:10:18.866Z,97273.00
2022-12-12T05:15:22.017Z,97270.00
2022-12-12T05:20:25.053Z,97272.00
2022-12-12T05:25:28.165Z,97267.00
2022-12-12T05:30:31.248Z,97275.00
2022-12-12T05:35:34.335Z,97288.00
2022-12-12T05:40:37.424Z,97279.00
2022-12-12T05:45:40.487Z,97280.00
2022-12-12T05:50:43.839Z,97288.00
2022-12-12T05:55:46.982Z,97293.00
2022-12-12T06:00:51.834Z,97287.00
2022-12-12T06:05:54.836Z,97294.00
2022-12-12T06:10:57.837Z,97304.00
2022-12-12T06:16:05.428Z,97304.00
2022-12-12T06:21:10.621Z,97306.00
2022-12-12T06:26:15.589Z,97305.00
2022-12-12T06:31:19.371Z,97312.00
2022-12-12T06:36:24.468Z,97313.00
2022-12-12T06:41:29.719Z,97315.00
2022-12-12T06:46:33.105Z,97318.00
2022-12-12T06:51:44.227Z,97317.00
2022-12-12T06:56:48.667Z,97333.00
2022-12-12T07:01:54.992Z,97339.00
2022-12-12T07:06:58.600Z,97329.00
2022-12-12T07:12:01.618Z,97338.00
2022-12-12T07:17:04.830Z,97333.00
2022-12-12T07:22:10.328Z,97347.00
2022-12-12T07:27:19.975Z,97356.00
2022-12-12T07:32:24.633Z,97359.00
2022-12-12T07:37:27.694Z,97361.00
2022-12-12T07:42:30.820Z,97362.00
2022-12-12T07:47:34.104Z,97368.00
2022-12-12T07:52:37.104Z,97370.00
2022-12-12T07:57:41.602Z,97369.00
2022-12-12T08:02:44.734Z,97367.00
2022-12-12T08:07:47.780Z,97374.00
2022-12-12T08:12:50.919Z,97379.00
2022-12-12T08:17:53.948Z,97375.00
2022-12-12T08:22:57.020Z,97388.00
2022-12-12T08:28:00.277Z,97380.00
2022-12-12T08:33:07.967Z,97384.00
2022-12-12T08:38:11.334Z,97395.00
2022-12-12T08:43:14.385Z,97387.00
2022-12-12T08:48:17.333Z,97400.00
2022-12-12T08:53:20.528Z,97400.00
2022-12-12T08:58:23.778Z,97417.00
2022-12-12T09:03:29.369Z,97417.00
2022-12-12T09:08:35.967Z,97432.00
2022-12-12T09:13:39.838Z,97435.00
2022-12-12T09:18:48.686Z,97438.00
2022-12-12T09:23:52.574Z,97440.00
2022-12-12T09:28:55.558Z,97442.00
2022-12-12T09:33:58.630Z,97434.00
2022-12-12T09:39:01.659Z,97445.00
2022-12-12T09:44:11.633Z,97430.00
2022-12-12T09:49:43.455Z,97437.00
2022-12-12T09:54:47.237Z,97448.00
2022-12-12T10:00:10.462Z,97442.00
2022-12-12T10:05:32.217Z,97451.00
2022-12-12T10:10:40.003Z,97434.00
2022-12-12T10:15:52.611Z,97438.00
2022-12-12T10:20:59.529Z,97443.00
2022-12-12T10:26:05.415Z,97443.00
2022-12-12T10:31:31.821Z,97450.00
2022-12-12T10:37:15.396Z,97449.00
2022-12-12T10:42:39.970Z,97453.00
2022-12-12T10:47:43.258Z,97445.00
2022-12-12T10:52:46.362Z,97453.00
2022-12-12T10:57:59.596Z,97450.00
2022-12-12T11:03:20.249Z,97449.00
2022-12-12T11:08:23.379Z,97447.00
2022-12-12T11:13:26.449Z,97443.00
2022-12-12T11:18:30.600Z,97443.00
2022-12-12T11:23:35.968Z,97451.00
2022-12-12T11:28:42.482Z,97445.00
2022-12-12T11:33:55.985Z,97451.00
2022-12-12T11:39:01.688Z,97449.00
2022-12-12T11:44:04.719Z,97456.00
2022-12-12T11:49:18.989Z,97445.00
2022-12-12T11:54:29.483Z,97447.00
2022-12-12T11:59:44.413Z,97459.00
2022-12-12T12:04:53.291Z,97450.00
2022-12-12T12:10:12.378Z,97455.00
2022-12-12T12:15:34.173Z,97444.00
2022-12-12T12:20:58.255Z,97464.00
2022-12-12T12:26:22.825Z,97457.00
2022-12-12T12:31:40.791Z,97465.00
2022-12-12T12:36:55.730Z,97459.00
2022-12-12T12:42:21.810Z,97453.00
2022-12-12T12:47:54.644Z,97471.00
2022-12-12T12:53:16.689Z,97464.00
2022-12-12T12:58:24.352Z,97461.00
2022-12-12T13:03:33.735Z,97462.00
2022-12-12T13:09:00.615Z,97470.00
2022-12-12T13:14:26.937Z,97469.00
2022-12-12T13:19:42.041Z,97480.00
2022-12-12T13:25:30.347Z,97483.00
2022-12-12T13:31:11.249Z,97482.00
2022-12-12T13:36:30.221Z,97475.00
2022-12-12T13:42:06.081Z,97478.00
2022-12-12T13:47:23.124Z,97478.00
2022-12-12T13:52:32.013Z,97502.00
2022-12-12T13:57:34.998Z,97490.00
2022-12-12T14:02:44.392Z,97504.00
2022-12-12T14:08:01.100Z,97510.00
2022-12-12T14:13:23.339Z,97513.00
2022-12-12T14:18:36.100Z,97521.00
2022-12-12T14:23:50.483Z,97516.00
2022-12-12T14:29:18.362Z,97509.00
2022-12-12T14:34:46.417Z,97527.00
2022-12-12T14:39:58.686Z,97515.00
2022-12-12T14:45:01.734Z,97522.00
2022-12-12T14:50:17.394Z,97522.00
2022-12-12T14:55:20.423Z,97533.00
2022-12-12T15:00:23.918Z,97535.00
2022-12-12T15:05:26.950Z,97542.00
2022-12-12T15:10:31.074Z,97545.00
2022-12-12T15:15:35.730Z,97560.00
2022-12-12T15:20:39.180Z,97556.00
2022-12-12T15:25:54.272Z,97567.00
2022-12-12T15:30:57.466Z,97564.00
2022-12-12T15:36:07.994Z,97558.00
2022-12-12T15:41:13.229Z,97564.00
2022-12-12T15:46:17.279Z,97563.00
2022-12-12T15:51:25.131Z,97568.00
2022-12-12T15:56:29.709Z,97581.00
2022-12-12T16:01:32.816Z,97563.00
2022-12-12T16:06:35.919Z,97566.00
2022-12-12T16:11:47.518Z,97558.00
2022-12-12T16:16:53.567Z,97562.00
2022-12-12T16:21:56.701Z,97570.00
2022-12-12T16:27:01.077Z,97578.00
2022-12-12T16:32:04.250Z,97572.00
2022-12-12T16:37:09.323Z,97577.00
2022-12-12T16:42:21.153Z,97592.00
2022-12-12T16:47:25.001Z,97598.00
2022-12-12T16:52:28.232Z,97586.00
2022-12-12T16:57:31.220Z,97586.00
2022-12-12T17:02:36.259Z,97584.00
2022-12-12T17:07:40.001Z,97585.00
2022-12-12T17:12:45.514Z,97603.00
2022-12-12T17:17:48.542Z,97604.00
2022-12-12T17:22:54.708Z,97599.00
2022-12-12T17:27:57.750Z,97607.00
2022-12-12T17:33:18.792Z,97611.00
2022-12-12T17:38:21.805Z,97598.00
2022-12-12T17:43:26.193Z,97606.00
2022-12-12T17:48:31.499Z,97621.00
2022-12-12T17:53:38.559Z,97626.00
2022-12-12T17:58:44.335Z,97635.00
2022-12-12T18:03:48.589Z,97621.00
2022-12-12T18:08:52.619Z,97637.00
2022-12-12T18:14:01.150Z,97621.00
2022-12-12T18:19:04.758Z,97632.00
2022-12-12T18:24:07.926Z,97638.00
2022-12-12T18:29:13.657Z,97633.00
2022-12-12T18:34:17.253Z,97646.00
2022-12-12T18:39:20.449Z,97654.00
2022-12-12T18:44:23.556Z,97647.00
2022-12-12T18:49:26.723Z,97643.00
2022-12-12T18:54:29.953Z,97646.00
2022-12-12T18:59:32.888Z,97651.00
2022-12-12T19:04:36.221Z,97643.00
2022-12-12T19:09:39.683Z,97637.00
2022-12-12T19:15:15.275Z,97649.00
2022-12-12T19:20:06.442Z,97646.00
2022-12-12T19:25:10.018Z,97664.00
2022-12-12T19:30:15.036Z,97648.00
2022-12-12T19:35:18.385Z,97657.00
2022-12-12T19:40:21.373Z,97667.00
2022-12-12T19:45:24.404Z,97663.00
2022-12-12T19:50:27.485Z,97662.00
2022-12-12T19:55:30.904Z,97653.00
2022-12-12T20:00:33.964Z,97663.00
2022-12-12T20:05:37.158Z,97660.00
2022-12-12T20:10:40.165Z,97659.00
2022-12-12T20:15:43.310Z,97662.00
2022-12-12T20:20:46.317Z,97642.00
2022-12-12T20:25:51.205Z,97663.00
2022-12-12T20:31:04.728Z,97669.00
2022-12-12T20:36:13.464Z,97655.00
2022-12-12T20:41:37.410Z,97646.00
2022-12-12T20:46:42.660Z,97654.00
2022-12-12T20:51:55.806Z,97654.00
2022-12-12T20:57:01.260Z,97654.00
2022-12-12T21:02:04.347Z,97663.00
2022-12-12T21:07:07.390Z,97670.00
2022-12-12T21:12:10.569Z,97664.00
2022-12-12T21:17:13.633Z,97674.00
2022-12-12T21:22:16.643Z,97663.00
2022-12-12T21:27:19.716Z,97672.00
2022-12-12T21:32:22.934Z,97681.00
2022-12-12T21:37:25.888Z,97669.00
2022-12-12T21:42:29.022Z,97672.00
2022-12-12T21:47:32.044Z,97673.00
2022-12-12T21:52:35.137Z,97660.00
2022-12-12T21:57:38.261Z,97669.00
2022-12-12T22:02:44.698Z,97664.00
2022-12-12T22:07:50.036Z,97673.00
2022-12-12T22:12:57.048Z,97667.00
2022-12-12T22:18:00.749Z,97669.00
2022-12-12T22:23:03.727Z,97671.00
2022-12-12T22:28:06.770Z,97666.00
2022-12-12T22:33:09.835Z,97657.00
2022-12-12T22:38:12.881Z,97660.00
2022-12-12T22:43:15.937Z,97650.00
2022-12-12T22:48:19.518Z,97645.00
2022-12-12T22:53:22.519Z,97655.00
2022-12-12T22:58:25.516Z,97647.00
2022-12-12T23:03:30.680Z,97656.00
2022-12-12T23:08:34.295Z,97650.00
2022-12-12T23:13:37.802Z,97644.00
2022-12-12T23:18:41.537Z,97647.00
2022-12-12T23:23:45.385Z,97644.00
2022-12-12T23:28:49.283Z,97646.00
2022-12-12T23:33:57.983Z,97639.00
2022-12-12T23:39:04.583Z,97638.00
2022-12-12T23:44:08.411Z,97633.00
2022-12-12T23:49:17.581Z,97627.00
2022-12-12T23:54:23.840Z,97630.00
2022-12-12T23:59:27.427Z,97621.00
